Time,TemperatureF,DewpointF,PressureIn,WindDirection,WindDirectionDegrees,WindSpeedMPH,WindSpeedGustMPH,Humidity,HourlyPrecipIn,Conditions,Clouds,dailyrainin,SoftwareType,DateUTC
2013-01-18 00:03:00,39.0,37.0,30.31,NNW,339,5.0,8.0,92,0.00,,,2.85,,2013-01-18 05:03:00,
2013-01-18 00:12:00,39.0,37.0,30.31,NNW,339,5.0,8.0,92,0.00,,,2.85,,2013-01-18 05:12:00,
2013-01-18 00:22:00,39.0,37.0,30.32,North,359,3.0,6.0,91,0.00,,,2.85,,2013-01-18 05:22:00,
2013-01-18 00:33:00,39.0,36.0,30.32,NE,44,5.0,8.0,90,0.00,,,2.85,,2013-01-18 05:33:00,
2013-01-18 00:42:00,39.0,36.0,30.32,NE,44,5.0,8.0,90,0.00,,,2.85,,2013-01-18 05:42:00,
2013-01-18 00:52:00,39.0,35.0,30.34,NW,307,3.0,5.0,86,0.00,,,2.85,,2013-01-18 05:52:00,
2013-01-18 01:02:00,39.0,35.0,30.36,NW,323,4.0,5.0,87,0.00,,,2.85,,2013-01-18 06:02:00,
2013-01-18 01:12:00,39.0,35.0,30.36,NW,323,4.0,5.0,87,0.00,,,2.85,,2013-01-18 06:12:00,
2013-01-18 01:22:00,39.0,35.0,30.37,East,98,7.0,11.0,86,0.00,,,2.85,,2013-01-18 06:22:00,
2013-01-18 01:33:00,39.0,35.0,30.37,NW,326,4.0,7.0,86,0.00,,,2.85,,2013-01-18 06:33:00,
2013-01-18 01:43:00,39.0,35.0,30.37,NW,326,4.0,7.0,86,0.00,,,2.85,,2013-01-18 06:43:00,
2013-01-18 01:52:00,38.0,34.0,30.38,NW,322,5.0,8.0,86,0.00,,,2.85,,2013-01-18 06:52:00,
2013-01-18 02:02:00,38.0,34.0,30.39,WSW,240,2.0,4.0,87,0.00,,,2.85,,2013-01-18 07:02:00,
2013-01-18 02:12:00,38.0,34.0,30.39,WSW,240,2.0,4.0,87,0.00,,,2.85,,2013-01-18 07:12:00,
2013-01-18 02:22:00,38.0,34.0,30.40,West,271,4.0,6.0,86,0.00,,,2.84,,2013-01-18 07:22:00,
2013-01-18 02:32:00,37.0,33.0,30.40,NW,321,5.0,7.0,85,0.00,,,2.84,,2013-01-18 07:32:00,
2013-01-18 02:42:00,37.0,33.0,30.40,NW,321,5.0,7.0,85,0.00,,,2.84,,2013-01-18 07:42:00,
2013-01-18 02:52:00,37.0,33.0,30.40,NNE,25,5.0,7.0,84,0.00,,,2.84,,2013-01-18 07:52:00,
2013-01-18 03:02:00,37.0,32.0,30.40,NE,44,3.0,7.0,82,0.00,,,2.84,,2013-01-18 08:02:00,
2013-01-18 03:12:00,37.0,32.0,30.40,NE,44,3.0,7.0,82,0.00,,,2.84,,2013-01-18 08:12:00,
2013-01-18 03:22:00,37.0,32.0,30.41,NNE,17,6.0,11.0,81,0.00,,,2.84,,2013-01-18 08:22:00,
2013-01-18 03:32:00,37.0,32.0,30.41,NE,34,5.0,8.0,81,0.00,,,2.83,,2013-01-18 08:32:00,
2013-01-18 03:42:00,37.0,32.0,30.41,NE,34,5.0,8.0,81,0.00,,,2.83,,2013-01-18 08:42:00,
2013-01-18 03:52:00,36.0,34.0,30.41,ESE,115,2.0,3.0,91,0.00,,,2.82,,2013-01-18 08:52:00,
2013-01-18 04:02:00,35.0,31.0,30.42,SW,236,6.0,8.0,86,0.00,,,2.81,,2013-01-18 09:02:00,
2013-01-18 04:12:00,35.0,31.0,30.42,SW,236,6.0,8.0,86,0.00,,,2.81,,2013-01-18 09:12:00,
2013-01-18 04:22:00,36.0,31.0,30.42,West,267,5.0,8.0,81,0.00,,,2.80,,2013-01-18 09:22:00,
2013-01-18 04:33:00,36.0,31.0,30.42,North,350,7.0,11.0,82,0.00,,,2.80,,2013-01-18 09:33:00,
2013-01-18 04:42:00,36.0,31.0,30.42,North,350,7.0,11.0,82,0.00,,,2.80,,2013-01-18 09:42:00,
2013-01-18 04:53:00,36.0,33.0,30.42,North,10,4.0,7.0,88,0.00,,,2.79,,2013-01-18 09:53:00,
2013-01-18 05:02:00,36.0,31.0,30.42,North,1,7.0,10.0,83,0.00,,,2.77,,2013-01-18 10:02:00,
2013-01-18 05:12:00,36.0,31.0,30.42,North,1,7.0,10.0,83,0.00,,,2.77,,2013-01-18 10:12:00,
2013-01-18 05:22:00,36.0,31.0,30.43,North,4,6.0,10.0,83,0.00,,,2.76,,2013-01-18 10:22:00,
2013-01-18 05:32:00,35.0,30.0,30.43,North,10,8.0,13.0,82,0.00,,,2.75,,2013-01-18 10:32:00,
2013-01-18 05:43:00,35.0,30.0,30.43,North,10,8.0,13.0,82,0.00,,,2.75,,2013-01-18 10:43:00,
2013-01-18 05:52:00,35.0,30.0,30.43,WNW,291,2.0,7.0,83,0.00,,,2.74,,2013-01-18 10:52:00,
2013-01-18 06:02:00,35.0,30.0,30.44,NNW,338,3.0,4.0,83,0.00,,,2.73,,2013-01-18 11:02:00,
2013-01-18 06:12:00,35.0,30.0,30.44,NNW,338,3.0,4.0,83,0.00,,,2.73,,2013-01-18 11:12:00,
2013-01-18 06:23:00,34.0,31.0,30.44,WSW,245,4.0,6.0,87,0.00,,,2.73,,2013-01-18 11:23:00,
2013-01-18 06:32:00,34.0,31.0,30.44,ESE,115,2.0,5.0,88,0.00,,,2.72,,2013-01-18 11:32:00,
2013-01-18 06:42:00,34.0,31.0,30.44,ESE,115,2.0,5.0,88,0.00,,,2.72,,2013-01-18 11:42:00,
2013-01-18 06:53:00,35.0,30.0,30.45,SSW,195,4.0,5.0,83,0.00,,,2.70,,2013-01-18 11:53:00,
2013-01-18 07:03:00,34.0,30.0,30.46,SW,217,2.0,4.0,85,0.00,,,2.65,,2013-01-18 12:03:00,
2013-01-18 07:12:00,34.0,30.0,30.46,SW,217,2.0,4.0,85,0.00,,,2.65,,2013-01-18 12:12:00,
2013-01-18 07:22:00,34.0,29.0,30.47,West,273,3.0,4.0,83,0.00,,,2.65,,2013-01-18 12:22:00,
2013-01-18 07:33:00,34.0,31.0,30.47,WSW,240,1.0,4.0,90,0.00,,,2.64,,2013-01-18 12:33:00,
2013-01-18 07:43:00,34.0,31.0,30.47,WSW,240,1.0,4.0,90,0.00,,,2.64,,2013-01-18 12:43:00,
2013-01-18 07:52:00,34.0,30.0,30.47,WSW,256,6.0,7.0,85,0.00,,,2.63,,2013-01-18 12:52:00,
2013-01-18 08:03:00,34.0,31.0,30.49,WSW,239,4.0,5.0,90,0.00,,,2.62,,2013-01-18 13:03:00,
2013-01-18 08:12:00,34.0,31.0,30.49,WSW,239,4.0,5.0,90,0.00,,,2.62,,2013-01-18 13:12:00,
2013-01-18 08:23:00,36.0,30.0,30.50,SE,139,1.0,5.0,78,0.00,,,2.61,,2013-01-18 13:23:00,
2013-01-18 08:33:00,36.0,29.0,30.50,North,8,0.0,3.0,77,0.00,,,2.61,,2013-01-18 13:33:00,
2013-01-18 08:43:00,36.0,29.0,30.50,North,8,0.0,3.0,77,0.00,,,2.61,,2013-01-18 13:43:00,
2013-01-18 08:53:00,37.0,31.0,30.52,NW,304,0.0,0.0,78,0.00,,,2.57,,2013-01-18 13:53:00,
2013-01-18 09:03:00,38.0,31.0,30.53,NNW,330,3.0,4.0,75,0.00,,,2.53,,2013-01-18 14:03:00,
2013-01-18 09:12:00,38.0,31.0,30.53,NNW,330,3.0,4.0,75,0.00,,,2.53,,2013-01-18 14:12:00,
2013-01-18 09:23:00,39.0,34.0,30.54,NNW,336,4.0,6.0,81,0.00,,,2.45,,2013-01-18 14:23:00,
2013-01-18 09:33:00,41.0,34.0,30.56,NNW,342,2.0,5.0,76,0.00,,,2.43,,2013-01-18 14:33:00,
2013-01-18 09:42:00,41.0,34.0,30.56,NNW,342,2.0,5.0,76,0.00,,,2.43,,2013-01-18 14:42:00,
2013-01-18 09:53:00,42.0,32.0,30.57,NW,325,3.0,5.0,68,0.00,,,2.42,,2013-01-18 14:53:00,
2013-01-18 10:03:00,42.0,33.0,30.57,NNW,343,4.0,6.0,69,0.00,,,2.39,,2013-01-18 15:03:00,
2013-01-18 10:13:00,42.0,33.0,30.57,NNW,343,4.0,6.0,69,0.00,,,2.39,,2013-01-18 15:13:00,
2013-01-18 10:23:00,43.0,33.0,30.59,North,359,4.0,7.0,68,0.00,,,2.27,,2013-01-18 15:23:00,
2013-01-18 10:33:00,44.0,32.0,30.59,NNW,335,4.0,7.0,63,0.00,,,2.20,,2013-01-18 15:33:00,
2013-01-18 10:43:00,44.0,32.0,30.59,NNW,335,4.0,7.0,63,0.00,,,2.20,,2013-01-18 15:43:00,
2013-01-18 10:54:00,45.0,32.0,30.60,NNW,330,4.0,6.0,61,0.00,,,2.14,,2013-01-18 15:54:00,
2013-01-18 11:03:00,46.0,33.0,30.60,NNE,20,4.0,7.0,60,0.00,,,2.13,,2013-01-18 16:03:00,
2013-01-18 11:12:00,46.0,33.0,30.60,NNE,20,4.0,7.0,60,0.00,,,2.13,,2013-01-18 16:12:00,
2013-01-18 11:23:00,47.0,34.0,30.60,North,4,3.0,5.0,60,0.00,,,2.12,,2013-01-18 16:23:00,
2013-01-18 11:33:00,48.0,34.0,30.60,NE,55,1.0,2.0,57,0.00,,,2.09,,2013-01-18 16:33:00,
2013-01-18 11:42:00,48.0,34.0,30.60,NE,55,1.0,2.0,57,0.00,,,2.09,,2013-01-18 16:42:00,
2013-01-18 11:52:00,49.0,34.0,30.59,NE,52,2.0,5.0,55,0.00,,,1.95,,2013-01-18 16:52:00,
2013-01-18 12:03:00,49.0,33.0,30.59,East,100,2.0,3.0,54,0.00,,,1.93,,2013-01-18 17:03:00,
2013-01-18 12:13:00,49.0,33.0,30.59,East,100,2.0,3.0,54,0.00,,,1.93,,2013-01-18 17:13:00,
2013-01-18 12:23:00,50.0,35.0,30.59,West,269,2.0,3.0,56,0.00,,,1.88,,2013-01-18 17:23:00,
2013-01-18 12:33:00,49.0,30.0,30.58,West,266,7.0,10.0,48,0.00,,,1.76,,2013-01-18 17:33:00,
2013-01-18 12:43:00,49.0,30.0,30.58,West,266,7.0,10.0,48,0.00,,,1.76,,2013-01-18 17:43:00,
2013-01-18 12:53:00,49.0,31.0,30.58,NW,307,3.0,5.0,49,0.00,,,1.75,,2013-01-18 17:53:00,
2013-01-18 13:03:00,50.0,32.0,30.58,WNW,290,2.0,3.0,49,0.00,,,1.73,,2013-01-18 18:03:00,
2013-01-18 13:13:00,50.0,32.0,30.58,WNW,290,2.0,3.0,49,0.00,,,1.73,,2013-01-18 18:13:00,
2013-01-18 13:23:00,52.0,34.0,30.57,NNE,24,1.0,2.0,50,0.00,,,1.64,,2013-01-18 18:23:00,
2013-01-18 13:33:00,53.0,33.0,30.57,NNW,335,2.0,4.0,46,0.00,,,1.55,,2013-01-18 18:33:00,
2013-01-18 13:43:00,53.0,33.0,30.57,NNW,335,2.0,4.0,46,0.00,,,1.55,,2013-01-18 18:43:00,
2013-01-18 13:52:00,54.0,34.0,30.57,SW,233,2.0,3.0,46,0.00,,,1.48,,2013-01-18 18:52:00,
2013-01-18 14:03:00,53.0,33.0,30.56,WSW,242,2.0,4.0,46,0.00,,,1.43,,2013-01-18 19:03:00,
2013-01-18 14:13:00,53.0,33.0,30.56,WSW,242,2.0,4.0,46,0.00,,,1.43,,2013-01-18 19:13:00,
2013-01-18 14:23:00,53.0,31.0,30.56,West,270,2.0,5.0,42,0.00,,,1.27,,2013-01-18 19:23:00,
2013-01-18 14:33:00,53.0,31.0,30.56,NW,326,3.0,4.0,42,0.00,,,1.08,,2013-01-18 19:33:00,
2013-01-18 14:43:00,53.0,31.0,30.56,NW,326,3.0,4.0,42,0.00,,,1.08,,2013-01-18 19:43:00,
2013-01-18 14:53:00,53.0,31.0,30.56,WSW,255,1.0,3.0,43,0.00,,,1.01,,2013-01-18 19:53:00,
2013-01-18 15:03:00,53.0,31.0,30.55,SSE,150,2.0,2.0,43,0.00,,,0.97,,2013-01-18 20:03:00,
2013-01-18 15:13:00,53.0,31.0,30.55,SSE,150,2.0,2.0,43,0.00,,,0.97,,2013-01-18 20:13:00,
2013-01-18 15:23:00,53.0,32.0,30.55,South,191,2.0,3.0,44,0.00,,,0.96,,2013-01-18 20:23:00,
2013-01-18 15:33:00,53.0,30.0,30.55,West,264,3.0,5.0,41,0.00,,,0.86,,2013-01-18 20:33:00,
2013-01-18 15:43:00,53.0,30.0,30.55,West,264,3.0,5.0,41,0.00,,,0.86,,2013-01-18 20:43:00,
2013-01-18 15:52:00,54.0,31.0,30.55,South,191,2.0,2.0,42,0.00,,,0.81,,2013-01-18 20:52:00,
2013-01-18 16:03:00,55.0,34.0,30.55,SSW,203,3.0,4.0,45,0.00,,,0.75,,2013-01-18 21:03:00,
2013-01-18 16:13:00,55.0,34.0,30.55,SSW,203,3.0,4.0,45,0.00,,,0.75,,2013-01-18 21:13:00,
2013-01-18 16:23:00,53.0,33.0,30.56,South,180,4.0,5.0,46,0.00,,,0.69,,2013-01-18 21:23:00,
2013-01-18 16:33:00,51.0,31.0,30.56,South,186,4.0,6.0,46,0.00,,,0.65,,2013-01-18 21:33:00,
2013-01-18 16:43:00,51.0,31.0,30.56,South,186,4.0,6.0,46,0.00,,,0.65,,2013-01-18 21:43:00,
2013-01-18 16:52:00,51.0,31.0,30.56,SSE,158,2.0,3.0,46,0.00,,,0.63,,2013-01-18 21:52:00,
2013-01-18 17:03:00,51.0,31.0,30.57,SW,221,4.0,6.0,47,0.00,,,0.55,,2013-01-18 22:03:00,
2013-01-18 17:12:00,51.0,31.0,30.57,SW,221,4.0,6.0,47,0.00,,,0.55,,2013-01-18 22:12:00,
2013-01-18 17:23:00,51.0,33.0,30.57,SE,128,4.0,5.0,49,0.00,,,0.53,,2013-01-18 22:23:00,
2013-01-18 17:33:00,50.0,33.0,30.58,East,86,0.0,1.0,52,0.00,,,0.53,,2013-01-18 22:33:00,
2013-01-18 17:43:00,50.0,33.0,30.58,East,86,0.0,1.0,52,0.00,,,0.53,,2013-01-18 22:43:00,
2013-01-18 17:52:00,49.0,33.0,30.58,South,187,0.0,0.0,54,0.00,,,0.53,,2013-01-18 22:52:00,
2013-01-18 18:03:00,48.0,35.0,30.58,South,187,0.0,0.0,60,0.00,,,0.53,,2013-01-18 23:03:00,
2013-01-18 18:12:00,48.0,35.0,30.58,South,187,0.0,0.0,60,0.00,,,0.53,,2013-01-18 23:12:00,
2013-01-18 18:22:00,46.0,35.0,30.59,South,187,0.0,0.0,66,0.00,,,0.52,,2013-01-18 23:22:00,
2013-01-18 18:33:00,44.0,38.0,30.59,NNE,15,2.0,2.0,78,0.00,,,0.47,,2013-01-18 23:33:00,
2013-01-18 18:43:00,44.0,38.0,30.59,NNE,15,2.0,2.0,78,0.00,,,0.47,,2013-01-18 23:43:00,
2013-01-18 18:52:00,42.0,37.0,30.59,NNE,20,2.0,3.0,82,0.00,,,0.40,,2013-01-18 23:52:00,
2013-01-18 19:02:00,41.0,36.0,30.60,North,1,1.0,1.0,83,0.00,,,0.36,,2013-01-19 00:02:00,
2013-01-18 19:12:00,41.0,36.0,30.60,North,1,1.0,1.0,83,0.00,,,0.36,,2013-01-19 00:12:00,
2013-01-18 19:23:00,41.0,37.0,30.60,North,0,0.0,0.0,84,0.00,,,0.29,,2013-01-19 00:23:00,
2013-01-18 19:33:00,40.0,36.0,30.60,North,0,0.0,0.0,86,0.00,,,0.26,,2013-01-19 00:33:00,
2013-01-18 19:43:00,40.0,36.0,30.60,North,0,0.0,0.0,86,0.00,,,0.26,,2013-01-19 00:43:00,
2013-01-18 19:53:00,39.0,36.0,30.60,NNE,13,0.0,0.0,88,0.00,,,0.24,,2013-01-19 00:53:00,
2013-01-18 20:02:00,38.0,34.0,30.61,NNE,13,0.0,0.0,87,0.00,,,0.22,,2013-01-19 01:02:00,
2013-01-18 20:12:00,38.0,34.0,30.61,NNE,13,0.0,0.0,87,0.00,,,0.22,,2013-01-19 01:12:00,
2013-01-18 20:22:00,37.0,35.0,30.61,South,173,0.0,0.0,94,0.00,,,0.18,,2013-01-19 01:22:00,
2013-01-18 20:33:00,36.0,34.0,30.61,North,8,0.0,0.0,94,0.00,,,0.15,,2013-01-19 01:33:00,
2013-01-18 20:42:00,36.0,34.0,30.61,North,8,0.0,0.0,94,0.00,,,0.15,,2013-01-19 01:42:00,
2013-01-18 20:53:00,36.0,35.0,30.61,North,8,0.0,0.0,96,0.00,,,0.10,,2013-01-19 01:53:00,
2013-01-18 21:02:00,35.0,34.0,30.61,North,8,0.0,0.0,96,0.00,,,0.05,,2013-01-19 02:02:00,
2013-01-18 21:12:00,35.0,34.0,30.61,North,8,0.0,0.0,96,0.00,,,0.05,,2013-01-19 02:12:00,
2013-01-18 21:23:00,35.0,34.0,30.61,North,8,0.0,0.0,96,0.00,,,0.02,,2013-01-19 02:23:00,
2013-01-18 21:33:00,34.0,33.0,30.61,North,8,0.0,0.0,96,0.00,,,0.01,,2013-01-19 02:33:00,
2013-01-18 21:43:00,34.0,33.0,30.61,North,8,0.0,0.0,96,0.00,,,0.01,,2013-01-19 02:43:00,
2013-01-18 21:53:00,34.0,33.0,30.62,North,8,0.0,0.0,96,0.00,,,0.00,,2013-01-19 02:53:00,
2013-01-18 22:03:00,33.0,32.0,30.62,North,8,0.0,0.0,97,0.00,,,0.00,,2013-01-19 03:03:00,
2013-01-18 22:12:00,33.0,32.0,30.62,North,8,0.0,0.0,97,0.00,,,0.00,,2013-01-19 03:12:00,
2013-01-18 22:22:00,33.0,32.0,30.61,North,8,0.0,0.0,98,0.00,,,0.00,,2013-01-19 03:22:00,
2013-01-18 22:33:00,32.0,32.0,30.62,North,8,0.0,0.0,99,0.00,,,0.00,,2013-01-19 03:33:00,
2013-01-18 22:43:00,32.0,32.0,30.62,North,8,0.0,0.0,99,0.00,,,0.00,,2013-01-19 03:43:00,
2013-01-18 22:52:00,32.0,32.0,30.62,North,8,0.0,0.0,99,0.00,,,0.00,,2013-01-19 03:52:00,
2013-01-18 23:02:00,32.0,32.0,30.62,North,8,0.0,0.0,99,0.00,,,0.00,,2013-01-19 04:02:00,
2013-01-18 23:12:00,32.0,32.0,30.62,North,8,0.0,0.0,99,0.00,,,0.00,,2013-01-19 04:12:00,
2013-01-18 23:22:00,31.0,31.0,30.61,North,8,0.0,0.0,100,0.00,,,0.00,,2013-01-19 04:22:00,
2013-01-18 23:32:00,31.0,31.0,30.61,North,8,0.0,0.0,100,0.00,,,0.00,,2013-01-19 04:32:00,
2013-01-18 23:42:00,31.0,31.0,30.61,North,8,0.0,0.0,100,0.00,,,0.00,,2013-01-19 04:42:00,
2013-01-18 23:53:00,31.0,31.0,30.61,North,8,0.0,0.0,100,0.00,,,0.00,,2013-01-19 04:53:00,